Terminal Aerodrome Forecast
Issued by NWS Melbourne, FL

Home | Current Version | Previous Version | Text Only | Print | Product List | Glossary On
Versions: 1 2 3 4 5 6 7 8 9 10 11 12 13 14 15 16 17 18
000
FTUS42 KMLB 052334
TAFMLB
TAF
KMLB 052334Z 0600/0624 24006KT P6SM BKN060 BKN080
     FM061000 30011KT P6SM SCT007 BKN015 OVC040
     FM061200 36008KT P6SM SCT010 BKN020 OVC030
     FM062300 35014G20KT P6SM BKN025=

USA.gov is the U.S. government's official web portal to all federal, state and local government web resources and services.